Time;durP1;ratioP1;P1;durP2;ratioP2;P2;SDS_P1;SDS_P2;PMS_P1;PMS_P2;Temp;Humidity;BMP_temperature;BMP_pressure;BME280_temperature;BME280_humidity;BME280_pressure;Samples;Min_cycle;Max_cycle;Signal;HPM_P1;HPM_P2
2023/11/20 00:04:28;;;;;;;0.20;0.20;;;;;;;13.93;100.00;75313.69;6280842;22;20065;-93
2023/11/20 00:09:48;;;;;;;;;;;;;;;13.98;100.00;75319.66;6275994;22;20031;-96
2023/11/20 00:12:15;;;;;;;0.20;0.20;;;;;;;14.03;100.00;75326.25;6274920;22;19915;-93
2023/11/20 00:14:41;;;;;;;0.20;0.20;;;;;;;14.00;100.00;75322.66;6225356;22;20016;-93
2023/11/20 00:17:07;;;;;;;0.20;0.20;;;;;;;13.90;100.00;75310.69;6249963;22;19999;-93
2023/11/20 00:19:38;;;;;;;0.20;0.20;;;;;;;13.99;100.00;75320.88;6275694;22;19999;-92
2023/11/20 00:31:24;;;;;;;0.20;0.20;;;;;;;13.88;100.00;75314.44;6275217;22;20031;-93
2023/11/20 06:10:26;;;;;;;0.20;0.20;;;;;;;13.48;100.00;75264.38;6247841;22;20042;-91
2023/11/20 06:12:55;;;;;;;0.20;0.20;;;;;;;14.06;100.00;75329.88;6250304;22;20086;-94
2023/11/20 06:15:20;;;;;;;0.20;0.20;;;;;;;13.83;100.00;75305.69;6276138;22;20014;-94
2023/11/20 06:17:46;;;;;;;0.20;0.20;;;;;;;13.95;100.00;75313.88;6250177;22;20065;-92
2023/11/20 06:20:23;;;;;;;0.20;0.20;;;;;;;13.95;100.00;75316.66;6225526;22;20018;-93
2023/11/20 06:22:49;;;;;;;0.20;0.20;;;;;;;14.11;100.00;75335.22;6250485;22;20015;-93
2023/11/20 06:25:15;;;;;;;0.20;0.20;;;;;;;14.13;100.00;75338.25;6250959;22;20008;-94
2023/11/20 06:31:07;;;;;;;0.20;0.20;;;;;;;14.31;100.00;75361.38;6278140;22;20034;-94
2023/11/20 06:33:32;;;;;;;0.20;0.20;;;;;;;14.28;100.00;75355.00;6250412;22;20428;-92
2023/11/20 06:35:58;;;;;;;0.20;0.20;;;;;;;14.43;100.00;75378.53;6250513;22;20004;-94
2023/11/20 06:38:26;;;;;;;0.20;0.20;;;;;;;14.37;100.00;75369.16;6276210;22;20436;-94
2023/11/20 06:40:52;;;;;;;0.20;0.20;;;;;;;14.71;100.00;75405.94;6276434;22;20000;-94
2023/11/20 06:43:17;;;;;;;0.20;0.20;;;;;;;14.87;100.00;75424.50;6250533;22;20015;-94
2023/11/20 06:45:43;;;;;;;0.20;0.20;;;;;;;15.36;100.00;75482.03;6250680;22;20113;-94
2023/11/20 06:48:08;;;;;;;0.20;0.20;;;;;;;15.51;100.00;75502.81;6250671;22;20305;-94
2023/11/20 06:50:34;;;;;;;0.20;0.20;;;;;;;15.45;100.00;75492.84;6276074;22;20094;-93
2023/11/20 06:52:59;;;;;;;0.20;0.20;;;;;;;15.41;100.00;75494.19;6250597;22;20014;-94
2023/11/20 06:55:25;;;;;;;0.20;0.20;;;;;;;15.34;100.00;75479.63;6276146;22;20031;-95
2023/11/20 06:57:51;;;;;;;0.20;0.20;;;;;;;15.26;100.00;75470.66;6250116;22;20003;-96
2023/11/20 07:00:18;;;;;;;0.20;0.20;;;;;;;15.25;100.00;75472.25;6276114;22;20004;-94
2023/11/20 07:02:44;;;;;;;0.20;0.20;;;;;;;15.95;100.00;75554.38;6275979;22;20086;-95
2023/11/20 07:05:14;;;;;;;0.20;0.20;;;;;;;17.27;100.00;75706.97;6277315;22;20370;-95
2023/11/20 07:07:50;;;;;;;0.20;0.20;;;;;;;16.86;100.00;75652.78;6250790;22;20440;-94
2023/11/20 07:10:23;;;;;;;0.20;0.20;;;;;;;16.87;100.00;75660.16;6277277;22;20523;-95
2023/11/20 07:12:49;;;;;;;0.20;0.20;;;;;;;16.56;100.00;75617.38;6250981;22;20003;-95
2023/11/20 07:15:15;;;;;;;0.20;0.20;;;;;;;16.52;100.00;75612.59;6250350;22;20353;-94
2023/11/20 07:17:41;;;;;;;0.20;0.20;;;;;;;16.66;100.00;75634.94;6249994;22;20019;-95
2023/11/20 07:20:08;;;;;;;0.20;0.20;;;;;;;16.44;100.00;75609.16;6250302;22;20008;-94
2023/11/20 07:22:35;;;;;;;0.20;0.20;;;;;;;16.45;100.00;75610.34;6275823;22;20008;-94
2023/11/20 07:25:00;;;;;;;0.20;0.20;;;;;;;16.29;100.00;75591.16;6276887;22;20057;-94
2023/11/20 07:27:25;;;;;;;0.20;0.20;;;;;;;16.52;100.00;75613.19;6249598;22;20011;-94
2023/11/20 07:29:51;;;;;;;0.20;0.20;;;;;;;16.44;100.00;75609.75;6275496;22;20008;-94
2023/11/20 07:32:16;;;;;;;0.20;0.20;;;;;;;16.40;100.00;75602.16;6276838;22;20003;-95
2023/11/20 07:34:42;;;;;;;0.20;0.20;;;;;;;16.29;100.00;75586.19;6276565;22;20007;-94
2023/11/20 07:37:07;;;;;;;0.20;0.20;;;;;;;16.51;100.00;75617.53;6249464;22;20015;-91
2023/11/20 07:39:33;;;;;;;0.20;0.20;;;;;;;16.35;100.00;75592.78;6276742;22;20439;-91
2023/11/20 07:42:00;;;;;;;0.20;0.20;;;;;;;16.64;100.00;75630.34;6250314;22;20045;-91
2023/11/20 07:44:26;;;;;;;0.20;0.20;;;;;;;16.80;100.00;75651.16;6275665;22;20508;-91
2023/11/20 07:46:52;;;;;;;0.20;0.20;;;;;;;16.98;100.00;75672.75;6249429;22;20428;-92
2023/11/20 07:49:20;;;;;;;0.20;0.20;;;;;;;17.10;100.00;75689.97;6276105;22;20011;-91
2023/11/20 07:51:46;;;;;;;0.20;0.20;;;;;;;17.71;100.00;75761.97;6276103;22;20004;-92
2023/11/20 07:54:12;;;;;;;0.20;0.20;;;;;;;17.74;100.00;75760.00;6249272;22;20035;-90
2023/11/20 07:56:37;;;;;;;0.20;0.20;;;;;;;18.10;100.00;75804.81;6249421;22;20313;-92
2023/11/20 07:59:03;;;;;;;0.20;0.20;;;;;;;18.28;100.00;75826.44;6274355;22;20042;-91
2023/11/20 08:01:29;;;;;;;0.20;0.20;;;;;;;18.37;100.00;75839.44;6248182;22;20030;-91
2023/11/20 08:03:54;;;;;;;0.20;0.20;;;;;;;18.69;100.00;75871.69;6275072;22;19999;-92
2023/11/20 08:06:20;;;;;;;0.20;0.20;;;;;;;18.48;100.00;75843.66;6279004;22;20452;-91
2023/11/20 08:08:46;;;;;;;0.20;0.20;;;;;;;18.34;100.00;75833.06;6276389;22;20463;-91
2023/11/20 08:11:12;;;;;;;0.20;0.20;;;;;;;18.45;100.00;75840.66;6278182;22;20410;-91
2023/11/20 08:13:37;;;;;;;0.20;0.20;;;;;;;18.37;100.00;75838.84;6253109;22;20018;-91
2023/11/20 08:16:03;;;;;;;0.20;0.20;;;;;;;18.28;100.00;75826.44;6252737;22;20536;-92
2023/11/20 08:18:29;;;;;;;0.20;0.20;;;;;;;18.28;100.00;75826.44;6251699;22;20062;-92
2023/11/20 08:20:55;;;;;;;0.20;0.20;;;;;;;18.59;100.00;75856.88;6279401;22;20003;-91
2023/11/20 08:23:21;;;;;;;0.20;0.20;;;;;;;18.35;100.00;75833.66;6251812;22;20003;-90
2023/11/20 08:25:47;;;;;;;0.20;0.20;;;;;;;18.56;100.00;75856.06;6278794;22;20082;-90
2023/11/20 08:28:12;;;;;;;0.20;0.20;;;;;;;18.57;100.00;75860.06;6252352;22;20003;-91
2023/11/20 08:30:37;;;;;;;0.20;0.20;;;;;;;18.54;100.00;75850.88;6252036;22;20000;-90
2023/11/20 08:33:03;;;;;;;0.20;0.20;;;;;;;18.40;100.00;75836.84;6252113;22;20118;-90
2023/11/20 08:35:28;;;;;;;0.20;0.20;;;;;;;18.37;100.00;75833.25;6251486;22;20003;-91
2023/11/20 08:37:54;;;;;;;0.20;0.20;;;;;;;18.29;100.00;75824.84;6252101;22;20011;-91
2023/11/20 08:40:20;;;;;;;0.20;0.20;;;;;;;18.13;100.00;75805.03;6279853;22;20029;-92
2023/11/20 08:42:49;;;;;;;0.20;0.20;;;;;;;18.17;100.00;75807.63;6252793;22;20004;-91
2023/11/20 08:45:14;;;;;;;0.20;0.20;;;;;;;18.04;100.00;75797.63;6252057;22;20010;-91
2023/11/20 08:47:40;;;;;;;0.20;0.20;;;;;;;18.07;100.00;75795.63;6252385;22;20007;-90
2023/11/20 08:50:11;;;;;;;0.20;0.20;;;;;;;18.48;100.00;75846.44;6253235;22;20008;-91
2023/11/20 08:52:37;;;;;;;0.20;0.20;;;;;;;18.54;100.00;75856.47;6252401;22;20004;-91
2023/11/20 08:55:03;;;;;;;0.20;0.20;;;;;;;18.82;100.00;75884.53;6258024;22;20038;-90
2023/11/20 08:57:28;;;;;;;0.20;0.20;;;;;;;18.76;100.00;75882.31;6289934;22;20049;-91
2023/11/20 08:59:54;;;;;;;0.20;0.20;;;;;;;18.38;100.00;75837.84;6267962;22;20390;-91
2023/11/20 09:04:58;;;;;;;0.20;0.20;;;;;;;18.16;100.00;75811.41;6264647;22;20024;-92
2023/11/20 09:07:24;;;;;;;0.20;0.20;;;;;;;18.32;100.00;75830.63;6238135;23;20015;-92
2023/11/20 09:09:49;;;;;;;0.20;0.20;;;;;;;18.79;100.00;75886.50;6252438;23;20115;-92
2023/11/20 09:12:14;;;;;;;0.20;0.20;;;;;;;18.57;100.00;75857.25;6220058;23;20097;-91
2023/11/20 09:14:40;;;;;;;0.20;0.20;;;;;;;18.54;100.00;75851.47;6219800;23;20004;-92
2023/11/20 09:17:05;;;;;;;0.20;0.20;;;;;;;18.78;100.00;75885.31;6247108;23;20004;-92
2023/11/20 09:19:31;;;;;;;0.20;0.20;;;;;;;18.40;100.00;75842.44;6246028;23;20004;-92
2023/11/20 09:21:57;;;;;;;0.20;0.20;;;;;;;18.89;100.00;75891.72;6220924;22;20008;-92
2023/11/20 09:24:22;;;;;;;0.20;0.20;;;;;;;18.86;100.00;75890.94;6219748;23;20098;-90
2023/11/20 09:26:48;;;;;;;0.20;0.20;;;;;;;18.67;100.00;75872.06;6220613;23;20008;-91
2023/11/20 09:29:13;;;;;;;0.20;0.20;;;;;;;18.47;100.00;75843.06;6219627;23;20019;-91
2023/11/20 09:31:38;;;;;;;0.20;0.20;;;;;;;18.50;100.00;75851.66;6223244;23;20309;-92
2023/11/20 09:34:04;;;;;;;0.20;0.20;;;;;;;18.81;100.00;75885.53;6246596;23;20031;-92
2023/11/20 09:36:31;;;;;;;0.20;0.20;;;;;;;19.18;100.00;75932.19;6244620;23;20240;-91
2023/11/20 09:38:56;;;;;;;0.20;0.20;;;;;;;19.04;100.00;75910.34;6218790;23;20039;-91
2023/11/20 09:41:22;;;;;;;0.20;0.20;;;;;;;18.97;99.23;75907.53;6219675;23;20008;-91
2023/11/20 09:43:51;;;;;;;0.20;0.20;;;;;;;19.10;98.99;75919.75;6246111;23;20011;-90
2023/11/20 09:46:19;;;;;;;0.20;0.20;;;;;;;19.02;99.51;75912.97;6246156;22;20000;-91
2023/11/20 09:48:47;;;;;;;0.20;0.20;;;;;;;18.92;99.29;75895.34;6246703;23;20010;-90
2023/11/20 09:51:20;;;;;;;0.20;0.20;;;;;;;18.74;100.00;75874.31;6243663;23;20066;-91
2023/11/20 09:53:49;;;;;;;0.20;0.20;;;;;;;18.78;100.00;75881.91;6246617;23;20344;-91
2023/11/20 09:56:15;;;;;;;0.20;0.20;;;;;;;18.68;99.94;75864.91;6246308;23;20019;-92
2023/11/20 09:58:41;;;;;;;0.20;0.20;;;;;;;18.72;99.71;75878.09;6248463;23;20004;-91
2023/11/20 10:01:09;;;;;;;0.20;0.20;;;;;;;18.76;100.00;75877.31;6249576;23;20004;-91
2023/11/20 10:03:39;;;;;;;0.20;0.20;;;;;;;19.08;98.60;75917.34;6249180;23;20095;-92
2023/11/20 10:06:12;;;;;;;0.20;0.20;;;;;;;19.20;97.55;75928.38;6248196;23;20016;-91
2023/11/20 10:08:42;;;;;;;0.20;0.20;;;;;;;19.34;94.95;75945.78;6250335;22;20004;-94
2023/11/20 10:11:11;;;;;;;0.20;0.20;;;;;;;19.33;93.47;75947.41;6248855;23;20012;-92
2023/11/20 10:13:38;;;;;;;0.20;0.20;;;;;;;19.40;93.14;75951.81;6248472;23;20099;-94
2023/11/20 10:16:09;;;;;;;0.20;0.20;;;;;;;19.13;93.01;75926.16;6249195;23;20027;-93
2023/11/20 10:18:35;;;;;;;0.20;0.20;;;;;;;19.30;93.39;75943.78;6248992;22;20122;-92
2023/11/20 10:21:03;;;;;;;0.20;0.20;;;;;;;19.08;93.84;75917.34;6248342;23;20000;-92
2023/11/20 10:23:29;;;;;;;0.20;0.20;;;;;;;18.98;94.50;75902.53;6249493;22;20004;-92
2023/11/20 10:25:55;;;;;;;0.20;0.20;;;;;;;19.11;93.55;75920.94;6251328;23;20521;-92
2023/11/20 10:28:25;;;;;;;0.20;0.20;;;;;;;19.01;94.14;75906.13;6222846;23;20011;-92
2023/11/20 10:30:51;;;;;;;0.20;0.20;;;;;;;19.00;93.98;75905.53;6248670;23;20004;-92
2023/11/20 10:33:20;;;;;;;0.20;0.20;;;;;;;19.04;94.69;75913.16;6248442;23;20004;-92
2023/11/20 10:35:47;;;;;;;0.20;0.20;;;;;;;19.25;93.69;75932.16;6248724;23;20043;-92
2023/11/20 10:38:13;;;;;;;0.20;0.20;;;;;;;19.40;92.91;75952.41;6248907;23;20015;-92
2023/11/20 10:40:40;;;;;;;0.20;0.20;;;;;;;19.08;93.23;75917.97;6252964;22;20004;-91
2023/11/20 10:43:06;;;;;;;0.20;0.20;;;;;;;19.13;94.96;75926.16;6251884;23;20004;-92
2023/11/20 10:45:34;;;;;;;0.20;0.20;;;;;;;19.25;93.15;75934.38;6250636;23;20087;-92
2023/11/20 10:48:01;;;;;;;0.20;0.20;;;;;;;19.45;91.28;75958.41;6249369;22;20011;-94
2023/11/20 10:50:31;;;;;;;0.20;0.20;;;;;;;19.37;91.86;75954.41;6249700;22;20000;-93
2023/11/20 10:53:08;;;;;;;0.20;0.20;;;;;;;19.67;89.92;75981.47;6249432;22;20004;-93
2023/11/20 10:55:41;;;;;;;0.20;0.20;;;;;;;19.82;89.37;76001.69;6248471;23;19992;-91
2023/11/20 10:58:09;;;;;;;0.20;0.20;;;;;;;20.27;87.13;76051.78;6250039;22;20032;-93
2023/11/20 11:00:34;;;;;;;0.20;0.20;;;;;;;20.12;85.87;76037.16;6248457;23;20008;-92
2023/11/20 11:03:01;;;;;;;0.20;0.20;;;;;;;20.06;86.49;76030.53;6250660;22;20138;-92
2023/11/20 11:05:29;;;;;;;0.20;0.20;;;;;;;20.07;86.49;76031.75;6252435;22;20004;-92
2023/11/20 11:07:58;;;;;;;0.17;0.17;;;;;;;20.09;86.35;76033.56;6252570;22;20022;-92
2023/11/20 11:10:24;;;;;;;0.20;0.20;;;;;;;20.01;86.24;76024.53;6280390;22;20011;-92
2023/11/20 11:12:54;;;;;;;0.20;0.20;;;;;;;19.91;87.31;76014.72;6252327;22;20234;-92
2023/11/20 11:15:20;;;;;;;0.20;0.20;;;;;;;19.84;88.05;76013.13;6252035;22;20059;-90
2023/11/20 11:17:58;;;;;;;0.20;0.20;;;;;;;19.66;89.19;75985.88;6280172;22;20392;-89
2023/11/20 11:20:31;;;;;;;0.20;0.20;;;;;;;19.65;90.26;75987.47;6253775;22;20010;-91
2023/11/20 11:23:03;;;;;;;0.20;0.20;;;;;;;19.36;92.33;75950.41;6254410;22;20002;-92
2023/11/20 11:25:33;;;;;;;0.20;0.20;;;;;;;19.48;92.33;75958.59;6254638;22;20007;-92
2023/11/20 11:28:02;;;;;;;0.20;0.20;;;;;;;19.54;92.06;75969.22;6253547;22;20010;-92
2023/11/20 11:30:36;;;;;;;0.20;0.20;;;;;;;19.34;93.68;75951.41;6260052;22;20000;-91
2023/11/20 11:33:30;;;;;;;0.20;0.20;;;;;;;19.51;93.03;75965.03;6230100;22;20054;-91
2023/11/20 11:35:56;;;;;;;0.20;0.20;;;;;;;19.43;93.23;75949.78;6252829;22;20004;-94
2023/11/20 11:38:41;;;;;;;0.20;0.20;;;;;;;19.24;95.59;75933.19;6253042;22;20018;-93
2023/11/20 11:41:10;;;;;;;0.20;0.20;;;;;;;19.25;96.22;75929.38;6252584;22;20011;-93
2023/11/20 11:43:44;;;;;;;0.20;0.20;;;;;;;19.12;97.77;75922.16;6254691;22;20026;-93
2023/11/20 11:46:09;;;;;;;0.20;0.20;;;;;;;18.99;98.06;75909.94;6282950;22;19995;-94
2023/11/20 11:48:38;;;;;;;0.20;0.20;;;;;;;19.19;98.29;75932.78;6255729;22;20038;-93
2023/11/20 11:51:05;;;;;;;0.20;0.20;;;;;;;19.27;97.69;75942.97;6253637;22;20079;-93
2023/11/20 11:53:30;;;;;;;0.20;0.20;;;;;;;19.06;98.59;75912.13;6255923;22;20027;-92
2023/11/20 11:56:07;;;;;;;0.20;0.20;;;;;;;18.81;100.00;75880.53;6256208;22;20007;-94
2023/11/20 11:58:32;;;;;;;0.20;0.20;;;;;;;18.87;100.00;75889.31;6254876;22;20003;-94
2023/11/20 12:01:18;;;;;;;0.20;0.20;;;;;;;18.96;99.55;75900.75;6261450;22;20004;-94
2023/11/20 12:03:44;;;;;;;0.20;0.20;;;;;;;18.84;99.54;75886.91;6246723;23;20103;-93
2023/11/20 12:06:14;;;;;;;0.20;0.20;;;;;;;18.55;100.00;75855.47;6246885;23;20428;-96
2023/11/20 12:08:40;;;;;;;0.20;0.20;;;;;;;18.62;100.00;75860.47;6247577;22;20000;-93
2023/11/20 12:11:06;;;;;;;0.20;0.20;;;;;;;18.64;100.00;75865.66;6246853;23;20011;-93
2023/11/20 12:13:32;;;;;;;0.20;0.20;;;;;;;19.04;100.00;75918.16;6247506;23;20000;-95
2023/11/20 12:16:06;;;;;;;0.20;0.20;;;;;;;19.07;97.94;75916.16;6245642;23;20000;-94
2023/11/20 12:18:34;;;;;;;0.20;0.20;;;;;;;19.03;97.17;75908.53;6247753;23;20101;-93
2023/11/20 12:21:01;;;;;;;0.20;0.20;;;;;;;19.25;97.05;75940.59;6247191;23;20004;-93
2023/11/20 12:23:30;;;;;;;0.20;0.20;;;;;;;19.36;95.86;75948.19;6244456;22;20004;-95
2023/11/20 12:25:56;;;;;;;0.20;0.20;;;;;;;19.49;94.10;75960.41;6246197;23;20015;-93
2023/11/20 12:28:24;;;;;;;0.20;0.20;;;;;;;19.53;93.02;75973.03;6246459;22;20420;-93
2023/11/20 12:30:55;;;;;;;0.20;0.20;;;;;;;19.81;90.95;76003.88;6249239;22;20000;-91
2023/11/20 12:33:23;;;;;;;0.20;0.20;;;;;;;19.73;89.94;75994.28;6246896;22;20095;-92
2023/11/20 12:35:53;;;;;;;0.20;0.20;;;;;;;19.56;90.20;75977.25;6248048;22;20001;-94
2023/11/20 12:38:19;;;;;;;0.20;0.20;;;;;;;19.67;90.34;75981.47;6246496;23;20004;-94
2023/11/20 12:40:52;;;;;;;0.20;0.20;;;;;;;19.56;91.25;75973.84;6245198;23;20000;-92
2023/11/20 12:43:24;;;;;;;0.20;0.20;;;;;;;19.67;91.12;75984.28;6244500;23;20004;-93
2023/11/20 12:45:49;;;;;;;0.20;0.20;;;;;;;19.41;93.92;75953.59;6245143;22;20038;-94
2023/11/20 12:48:15;;;;;;;0.20;0.20;;;;;;;19.12;96.46;75919.34;6246033;23;19996;-93
2023/11/20 12:50:45;;;;;;;0.20;0.20;;;;;;;19.17;96.91;75925.34;6246739;23;20000;-94
2023/11/20 12:53:11;;;;;;;0.20;0.20;;;;;;;19.00;96.31;75910.53;6247172;22;20000;-92
2023/11/20 12:55:36;;;;;;;0.20;0.20;;;;;;;19.08;97.45;75920.16;6248408;22;20007;-94
2023/11/20 12:58:02;;;;;;;0.20;0.20;;;;;;;18.90;99.21;75887.91;6247857;22;20008;-93
2023/11/20 13:00:30;;;;;;;0.20;0.20;;;;;;;18.82;99.44;75890.13;6247498;23;20020;-92
2023/11/20 13:03:00;;;;;;;0.20;0.20;;;;;;;18.89;100.00;75894.53;6248429;22;20440;-94
2023/11/20 13:05:27;;;;;;;0.20;0.20;;;;;;;19.04;98.48;75910.34;6252510;22;20446;-94
2023/11/20 13:07:57;;;;;;;0.20;0.20;;;;;;;18.92;98.26;75898.13;6278515;22;20008;-93
2023/11/20 13:10:26;;;;;;;0.20;0.20;;;;;;;19.08;98.07;75917.34;6277149;22;20011;-94
2023/11/20 13:12:52;;;;;;;0.20;0.20;;;;;;;19.18;97.01;75926.56;6278145;22;20010;-93
2023/11/20 13:15:23;;;;;;;0.20;0.20;;;;;;;19.03;97.69;75911.34;6251311;22;20004;-93
2023/11/20 13:17:55;;;;;;;0.20;0.20;;;;;;;18.87;98.05;75889.31;6251619;22;20015;-93
2023/11/20 13:20:45;;;;;;;0.20;0.20;;;;;;;19.17;98.01;75930.38;6278903;22;20478;-94
2023/11/20 13:23:36;;;;;;;0.20;0.20;;;;;;;18.93;98.58;75896.53;6252554;22;20007;-93
2023/11/20 13:26:09;;;;;;;0.20;0.20;;;;;;;19.29;97.20;75933.56;6249905;22;20193;-93
2023/11/20 13:28:36;;;;;;;0.20;0.20;;;;;;;19.21;97.58;75929.56;6277090;22;20063;-93
2023/11/20 13:31:05;;;;;;;0.20;0.20;;;;;;;19.14;97.55;75921.16;6252639;22;20010;-93
2023/11/20 13:33:32;;;;;;;0.20;0.20;;;;;;;19.07;97.35;75916.75;6253567;22;20004;-96
2023/11/20 13:35:58;;;;;;;0.20;0.20;;;;;;;19.03;96.43;75908.53;6249779;22;20008;-93
2023/11/20 13:38:25;;;;;;;0.20;0.20;;;;;;;18.81;97.05;75883.31;6249526;22;20123;-93
2023/11/20 13:40:50;;;;;;;0.20;0.20;;;;;;;18.97;97.30;75901.34;6252539;22;20138;-94
2023/11/20 13:43:17;;;;;;;0.20;0.20;;;;;;;18.93;97.39;75902.75;6258076;22;20004;-93
2023/11/20 13:45:43;;;;;;;0.20;0.20;;;;;;;18.86;97.56;75890.94;6250800;22;20007;-93
2023/11/20 13:48:08;;;;;;;0.20;0.20;;;;;;;18.76;97.72;75874.50;6250851;22;20011;-93
2023/11/20 13:50:34;;;;;;;0.20;0.20;;;;;;;18.80;98.44;75884.94;6278478;22;20008;-93
2023/11/20 13:53:00;;;;;;;0.20;0.20;;;;;;;18.40;99.47;75834.06;6250337;22;20014;-92
2023/11/20 13:55:27;;;;;;;0.20;0.20;;;;;;;18.73;98.85;75870.91;6251068;22;20378;-92
2023/11/20 13:57:54;;;;;;;0.20;0.20;;;;;;;18.47;100.00;75845.84;6250519;22;20031;-92
2023/11/20 14:00:20;;;;;;;0.20;0.20;;;;;;;18.43;100.00;75843.25;6250491;22;20011;-93
2023/11/20 14:02:49;;;;;;;0.20;0.20;;;;;;;18.35;100.00;75830.84;6250570;22;20003;-93
2023/11/20 14:05:18;;;;;;;0.20;0.20;;;;;;;18.10;100.00;75804.22;6250576;22;20016;-94
2023/11/20 14:07:48;;;;;;;0.20;0.20;;;;;;;18.14;100.00;75804.03;6251037;22;20011;-94
2023/11/20 14:10:15;;;;;;;0.20;0.20;;;;;;;18.22;100.00;75813.66;6278038;22;20010;-93
2023/11/20 14:12:42;;;;;;;0.20;0.20;;;;;;;18.23;100.00;75814.84;6249656;22;20070;-92
2023/11/20 14:15:08;;;;;;;0.20;0.20;;;;;;;18.24;100.00;75816.03;6250484;22;20342;-93
2023/11/20 14:17:33;;;;;;;0.20;0.20;;;;;;;18.28;100.00;75823.03;6250790;22;20071;-93
2023/11/20 14:20:00;;;;;;;0.20;0.20;;;;;;;18.29;100.00;75819.25;6250361;22;20098;-92
2023/11/20 14:22:27;;;;;;;0.20;0.20;;;;;;;17.97;100.00;75789.22;6250985;22;20090;-91
2023/11/20 14:24:53;;;;;;;0.20;0.20;;;;;;;18.13;100.00;75802.22;6249704;22;20039;-92
2023/11/20 14:27:18;;;;;;;0.20;0.20;;;;;;;18.35;100.00;75834.25;6249098;22;20054;-92
2023/11/20 14:29:43;;;;;;;0.20;0.20;;;;;;;18.23;100.00;75817.63;6247142;22;20014;-93
2023/11/20 14:32:11;;;;;;;0.20;0.20;;;;;;;18.21;100.00;75809.63;6248445;22;20059;-93
2023/11/20 14:34:37;;;;;;;0.20;0.20;;;;;;;18.19;100.00;75812.84;6248582;22;19998;-93
2023/11/20 14:37:05;;;;;;;0.20;0.20;;;;;;;17.95;100.00;75781.22;6251983;22;20012;-94
2023/11/20 14:39:31;;;;;;;0.20;0.20;;;;;;;17.94;100.00;75783.41;6250319;22;20012;-96
2023/11/20 14:41:57;;;;;;;0.20;0.20;;;;;;;18.21;100.00;75812.44;6250082;22;20094;-94
2023/11/20 14:44:23;;;;;;;0.20;0.20;;;;;;;18.15;100.00;75805.22;6275826;22;20031;-95
2023/11/20 14:46:49;;;;;;;0.20;0.20;;;;;;;18.19;100.00;75812.84;6250003;22;20019;-94
2023/11/20 14:49:14;;;;;;;0.20;0.20;;;;;;;17.88;100.00;75776.22;6277799;22;20383;-94
2023/11/20 14:51:40;;;;;;;0.20;0.20;;;;;;;18.19;100.00;75810.03;6250314;22;20030;-94
2023/11/20 14:54:06;;;;;;;0.20;0.20;;;;;;;18.26;100.00;75823.44;6249371;22;20030;-94
2023/11/20 14:56:34;;;;;;;0.20;0.20;;;;;;;18.27;100.00;75822.44;6250223;22;20003;-95
2023/11/20 14:58:59;;;;;;;0.20;0.20;;;;;;;18.35;100.00;75830.84;6250292;22;20015;-93
2023/11/20 15:01:26;;;;;;;0.20;0.20;;;;;;;18.27;100.00;75825.25;6249929;22;20011;-94
2023/11/20 15:03:51;;;;;;;0.20;0.20;;;;;;;18.15;100.00;75805.22;6249351;22;20075;-94
2023/11/20 15:06:17;;;;;;;0.20;0.20;;;;;;;18.09;100.00;75803.63;6250143;22;20003;-94
2023/11/20 15:08:43;;;;;;;0.20;0.20;;;;;;;18.11;100.00;75800.44;6250221;22;20019;-94
2023/11/20 15:11:09;;;;;;;0.20;0.20;;;;;;;18.11;100.00;75800.44;6249492;22;20000;-94
2023/11/20 15:13:38;;;;;;;0.20;0.20;;;;;;;18.00;100.00;75792.81;6249608;22;20344;-94
2023/11/20 15:16:05;;;;;;;0.20;0.20;;;;;;;17.93;100.00;75776.00;6249979;22;20000;-94
2023/11/20 15:18:31;;;;;;;0.20;0.20;;;;;;;17.87;100.00;75774.41;6249522;22;20004;-93
2023/11/20 15:20:57;;;;;;;0.20;0.20;;;;;;;17.87;100.00;75772.22;6249806;22;20012;-94
2023/11/20 15:23:23;;;;;;;0.20;0.20;;;;;;;17.82;100.00;75771.22;6249598;22;20002;-95
2023/11/20 15:25:48;;;;;;;0.20;0.20;;;;;;;17.69;100.00;75756.78;6250137;22;20065;-94
2023/11/20 15:28:13;;;;;;;0.20;0.20;;;;;;;17.71;100.00;75759.19;6249380;22;20039;-95
2023/11/20 15:30:40;;;;;;;0.20;0.20;;;;;;;17.57;100.00;75739.56;6249305;22;20034;-94
2023/11/20 15:33:05;;;;;;;0.20;0.20;;;;;;;17.59;100.00;75741.97;6250502;22;20004;-93
2023/11/20 15:35:31;;;;;;;0.20;0.20;;;;;;;17.45;100.00;75727.97;6249326;22;20006;-93
2023/11/20 15:37:57;;;;;;;0.20;0.20;;;;;;;17.48;100.00;75731.56;6248793;22;20090;-94
2023/11/20 15:40:22;;;;;;;0.20;0.20;;;;;;;17.33;100.00;75710.78;6249978;22;20014;-93
2023/11/20 15:42:48;;;;;;;0.20;0.20;;;;;;;17.46;100.00;75723.56;6223634;22;20008;-94
2023/11/20 15:45:13;;;;;;;0.20;0.20;;;;;;;17.31;100.00;75708.38;6248907;22;20091;-92
2023/11/20 15:47:39;;;;;;;0.20;0.20;;;;;;;17.28;100.00;75703.19;6249217;22;20087;-93
2023/11/20 15:50:06;;;;;;;0.20;0.20;;;;;;;17.46;100.00;75723.56;6247890;22;20086;-94
2023/11/20 15:52:32;;;;;;;0.20;0.20;;;;;;;17.27;100.00;75704.78;6246801;22;20004;-95
2023/11/20 15:54:59;;;;;;;0.20;0.20;;;;;;;17.23;100.00;75702.75;6247407;22;20011;-92
2023/11/20 15:57:27;;;;;;;0.20;0.20;;;;;;;17.12;100.00;75686.78;6248959;22;20097;-94
2023/11/20 15:59:52;;;;;;;0.20;0.20;;;;;;;17.12;100.00;75683.97;6247959;22;20065;-93
2023/11/20 16:02:20;;;;;;;0.20;0.20;;;;;;;17.00;100.00;75670.19;6246629;22;20431;-93
2023/11/20 16:04:46;;;;;;;0.20;0.20;;;;;;;16.96;100.00;75673.16;6246441;22;20114;-92
2023/11/20 16:07:11;;;;;;;0.20;0.20;;;;;;;16.91;100.00;75658.78;6247570;22;20054;-93
2023/11/20 16:09:38;;;;;;;0.20;0.20;;;;;;;16.76;100.00;75647.56;6246952;22;20042;-94
2023/11/20 16:12:04;;;;;;;0.20;0.20;;;;;;;17.14;100.00;75691.97;6246300;22;20083;-94
2023/11/20 16:14:30;;;;;;;0.20;0.20;;;;;;;16.85;100.00;75654.38;6247510;22;20031;-91
2023/11/20 16:16:58;;;;;;;0.20;0.20;;;;;;;16.97;100.00;75674.94;6247421;22;20031;-94
2023/11/20 16:19:24;;;;;;;0.20;0.20;;;;;;;16.94;100.00;75665.78;6247349;22;20154;-94
2023/11/20 16:21:50;;;;;;;0.20;0.20;;;;;;;16.89;100.00;75661.97;6247748;22;20007;-94
2023/11/20 16:24:15;;;;;;;0.20;0.20;;;;;;;16.88;100.00;75657.97;6246823;22;20077;-94
2023/11/20 16:26:41;;;;;;;0.20;0.20;;;;;;;16.81;100.00;75652.38;6248128;22;20502;-94
2023/11/20 16:29:08;;;;;;;0.20;0.20;;;;;;;16.78;100.00;75649.38;6247230;22;20063;-92
2023/11/20 16:31:34;;;;;;;0.20;0.20;;;;;;;16.72;100.00;75642.16;6246290;22;20018;-93
2023/11/20 16:34:00;;;;;;;0.20;0.20;;;;;;;16.64;100.00;75627.56;6248166;22;20000;-94
2023/11/20 16:36:26;;;;;;;0.20;0.20;;;;;;;16.66;100.00;75632.75;6247626;22;20018;-93
2023/11/20 16:38:54;;;;;;;0.20;0.20;;;;;;;16.59;100.00;75621.56;6247234;22;20447;-93
2023/11/20 16:41:19;;;;;;;0.20;0.20;;;;;;;16.62;100.00;75625.19;6245457;22;20081;-94
2023/11/20 16:43:45;;;;;;;0.20;0.20;;;;;;;16.57;100.00;75624.16;6247822;22;19995;-94
2023/11/20 16:46:10;;;;;;;0.20;0.20;;;;;;;16.45;100.00;75608.16;6246280;22;20010;-94
2023/11/20 16:48:36;;;;;;;0.20;0.20;;;;;;;16.55;100.00;75622.34;6247448;22;20028;-94
2023/11/20 16:51:03;;;;;;;0.20;0.20;;;;;;;16.49;100.00;75612.97;6249043;22;20343;-94
2023/11/20 16:53:29;;;;;;;0.20;0.20;;;;;;;16.40;100.00;75598.78;6249557;22;20426;-93
2023/11/20 16:55:54;;;;;;;0.20;0.20;;;;;;;16.44;100.00;75606.38;6252058;22;20003;-92
2023/11/20 16:58:20;;;;;;;0.20;0.20;;;;;;;16.35;100.00;75595.56;6251733;22;20050;-94
2023/11/20 17:00:49;;;;;;;0.20;0.20;;;;;;;16.35;100.00;75601.16;6252462;22;20083;-93
2023/11/20 17:03:15;;;;;;;0.20;0.20;;;;;;;16.29;100.00;75585.59;6251744;22;20012;-93
2023/11/20 17:05:44;;;;;;;0.20;0.20;;;;;;;16.27;100.00;75585.97;6252837;22;20010;-92
2023/11/20 17:08:09;;;;;;;0.20;0.20;;;;;;;16.23;100.00;75584.56;6254820;22;20148;-92
2023/11/20 17:10:35;;;;;;;0.20;0.20;;;;;;;16.28;100.00;75592.75;6255073;22;20004;-92
2023/11/20 17:13:01;;;;;;;0.20;0.20;;;;;;;16.19;100.00;75577.59;6254022;22;20006;-92
2023/11/20 17:15:26;;;;;;;0.20;0.20;;;;;;;16.23;100.00;75582.38;6254482;22;20004;-93
2023/11/20 17:17:51;;;;;;;0.20;0.20;;;;;;;16.23;100.00;75579.59;6254744;22;20428;-93
2023/11/20 17:20:18;;;;;;;0.20;0.20;;;;;;;16.12;100.00;75571.97;6254448;22;20037;-92
2023/11/20 17:22:44;;;;;;;0.20;0.20;;;;;;;16.22;100.00;75578.38;6254018;22;20004;-92
2023/11/20 17:25:11;;;;;;;0.20;0.20;;;;;;;16.23;100.00;75582.38;6254893;22;20470;-91
2023/11/20 17:27:36;;;;;;;0.20;0.20;;;;;;;16.08;100.00;75558.81;6251604;22;20022;-92